sensor_id;sensor_type;location;lat;lon;timestamp;P1;durP1;ratioP1;P2;durP2;ratioP2
71896;SDS011;59767;51.344;12.362;2023-05-10T00:00:02;7.63;;;3.40;;
71896;SDS011;59767;51.344;12.362;2023-05-10T00:03:08;8.82;;;3.30;;
71896;SDS011;59767;51.344;12.362;2023-05-10T00:06:12;10.32;;;3.58;;
71896;SDS011;59767;51.344;12.362;2023-05-10T00:09:16;8.45;;;3.10;;
71896;SDS011;59767;51.344;12.362;2023-05-10T00:12:20;7.43;;;3.40;;
71896;SDS011;59767;51.344;12.362;2023-05-10T00:15:24;8.63;;;3.10;;
71896;SDS011;59767;51.344;12.362;2023-05-10T00:18:28;7.30;;;3.42;;
71896;SDS011;59767;51.344;12.362;2023-05-10T00:21:32;7.95;;;3.55;;
71896;SDS011;59767;51.344;12.362;2023-05-10T00:24:37;8.35;;;3.50;;
71896;SDS011;59767;51.344;12.362;2023-05-10T00:27:41;7.80;;;3.28;;
71896;SDS011;59767;51.344;12.362;2023-05-10T00:30:45;8.30;;;3.50;;
71896;SDS011;59767;51.344;12.362;2023-05-10T00:33:49;9.05;;;3.67;;
71896;SDS011;59767;51.344;12.362;2023-05-10T00:36:53;8.45;;;3.20;;
71896;SDS011;59767;51.344;12.362;2023-05-10T00:39:57;8.20;;;3.50;;
71896;SDS011;59767;51.344;12.362;2023-05-10T00:43:01;6.95;;;3.25;;
71896;SDS011;59767;51.344;12.362;2023-05-10T00:46:05;8.77;;;3.65;;
71896;SDS011;59767;51.344;12.362;2023-05-10T00:49:09;8.70;;;3.47;;
71896;SDS011;59767;51.344;12.362;2023-05-10T00:52:14;7.63;;;3.60;;
71896;SDS011;59767;51.344;12.362;2023-05-10T00:55:19;9.82;;;3.28;;
71896;SDS011;59767;51.344;12.362;2023-05-10T00:58:24;11.38;;;3.42;;
71896;SDS011;59767;51.344;12.362;2023-05-10T01:01:31;9.82;;;3.45;;
71896;SDS011;59767;51.344;12.362;2023-05-10T01:04:36;6.32;;;3.20;;
71896;SDS011;59767;51.344;12.362;2023-05-10T01:07:41;8.13;;;3.38;;
71896;SDS011;59767;51.344;12.362;2023-05-10T01:10:45;7.63;;;3.40;;
71896;SDS011;59767;51.344;12.362;2023-05-10T01:13:55;9.45;;;3.40;;
71896;SDS011;59767;51.344;12.362;2023-05-10T01:17:00;7.28;;;3.65;;
71896;SDS011;59767;51.344;12.362;2023-05-10T01:20:05;8.32;;;3.15;;
71896;SDS011;59767;51.344;12.362;2023-05-10T01:33:52;15.57;;;3.45;;
71896;SDS011;59767;51.344;12.362;2023-05-10T01:36:58;7.80;;;3.20;;
71896;SDS011;59767;51.344;12.362;2023-05-10T01:44:02;7.28;;;3.53;;
71896;SDS011;59767;51.344;12.362;2023-05-10T01:47:08;6.72;;;3.17;;
71896;SDS011;59767;51.344;12.362;2023-05-10T01:50:17;8.13;;;3.30;;
71896;SDS011;59767;51.344;12.362;2023-05-10T01:53:23;10.75;;;3.10;;
71896;SDS011;59767;51.344;12.362;2023-05-10T01:56:29;10.00;;;3.60;;
71896;SDS011;59767;51.344;12.362;2023-05-10T01:59:35;8.23;;;3.45;;
71896;SDS011;59767;51.344;12.362;2023-05-10T02:02:45;6.03;;;3.15;;
71896;SDS011;59767;51.344;12.362;2023-05-10T02:05:50;10.23;;;3.20;;
71896;SDS011;59767;51.344;12.362;2023-05-10T02:08:57;7.95;;;3.22;;
71896;SDS011;59767;51.344;12.362;2023-05-10T02:12:01;12.57;;;3.40;;
71896;SDS011;59767;51.344;12.362;2023-05-10T02:15:07;11.13;;;3.40;;
71896;SDS011;59767;51.344;12.362;2023-05-10T02:18:14;7.03;;;3.28;;
71896;SDS011;59767;51.344;12.362;2023-05-10T02:21:20;9.20;;;3.40;;
71896;SDS011;59767;51.344;12.362;2023-05-10T02:24:25;9.80;;;3.30;;
71896;SDS011;59767;51.344;12.362;2023-05-10T02:27:31;11.55;;;3.05;;
71896;SDS011;59767;51.344;12.362;2023-05-10T02:30:35;6.82;;;3.25;;
71896;SDS011;59767;51.344;12.362;2023-05-10T02:33:40;9.30;;;3.30;;
71896;SDS011;59767;51.344;12.362;2023-05-10T02:36:44;7.03;;;2.92;;
71896;SDS011;59767;51.344;12.362;2023-05-10T02:39:49;6.50;;;3.05;;
71896;SDS011;59767;51.344;12.362;2023-05-10T02:42:55;7.47;;;3.28;;
71896;SDS011;59767;51.344;12.362;2023-05-10T02:46:00;10.32;;;3.30;;
71896;SDS011;59767;51.344;12.362;2023-05-10T02:49:08;9.80;;;3.38;;
71896;SDS011;59767;51.344;12.362;2023-05-10T02:52:15;8.90;;;3.45;;
71896;SDS011;59767;51.344;12.362;2023-05-10T02:55:25;8.82;;;3.25;;
71896;SDS011;59767;51.344;12.362;2023-05-10T02:58:36;6.20;;;3.20;;
71896;SDS011;59767;51.344;12.362;2023-05-10T03:01:40;9.23;;;3.33;;
71896;SDS011;59767;51.344;12.362;2023-05-10T03:04:45;6.90;;;3.47;;
71896;SDS011;59767;51.344;12.362;2023-05-10T03:07:49;5.95;;;3.03;;
71896;SDS011;59767;51.344;12.362;2023-05-10T03:10:59;8.65;;;3.20;;
71896;SDS011;59767;51.344;12.362;2023-05-10T03:14:34;10.18;;;3.63;;
71896;SDS011;59767;51.344;12.362;2023-05-10T03:17:45;7.57;;;3.30;;
71896;SDS011;59767;51.344;12.362;2023-05-10T03:21:01;8.73;;;3.33;;
71896;SDS011;59767;51.344;12.362;2023-05-10T03:24:08;9.02;;;3.80;;
71896;SDS011;59767;51.344;12.362;2023-05-10T03:27:15;12.43;;;3.30;;
71896;SDS011;59767;51.344;12.362;2023-05-10T03:30:20;11.30;;;3.60;;
71896;SDS011;59767;51.344;12.362;2023-05-10T03:33:25;6.20;;;2.90;;
71896;SDS011;59767;51.344;12.362;2023-05-10T03:36:29;8.75;;;3.50;;
71896;SDS011;59767;51.344;12.362;2023-05-10T03:39:34;8.60;;;3.20;;
71896;SDS011;59767;51.344;12.362;2023-05-10T03:42:38;7.65;;;3.20;;
71896;SDS011;59767;51.344;12.362;2023-05-10T03:45:42;6.38;;;3.22;;
71896;SDS011;59767;51.344;12.362;2023-05-10T03:48:46;6.50;;;3.10;;
71896;SDS011;59767;51.344;12.362;2023-05-10T03:51:51;7.20;;;3.13;;
71896;SDS011;59767;51.344;12.362;2023-05-10T03:54:55;7.38;;;3.40;;
71896;SDS011;59767;51.344;12.362;2023-05-10T03:57:59;9.55;;;3.30;;
71896;SDS011;59767;51.344;12.362;2023-05-10T04:01:03;8.75;;;3.55;;
71896;SDS011;59767;51.344;12.362;2023-05-10T04:04:07;9.02;;;3.40;;
71896;SDS011;59767;51.344;12.362;2023-05-10T04:07:12;8.75;;;3.40;;
71896;SDS011;59767;51.344;12.362;2023-05-10T04:10:16;10.68;;;3.20;;
71896;SDS011;59767;51.344;12.362;2023-05-10T04:13:21;10.02;;;3.95;;
71896;SDS011;59767;51.344;12.362;2023-05-10T04:16:26;8.65;;;3.45;;
71896;SDS011;59767;51.344;12.362;2023-05-10T04:19:31;8.73;;;2.95;;
71896;SDS011;59767;51.344;12.362;2023-05-10T04:22:35;6.75;;;3.10;;
71896;SDS011;59767;51.344;12.362;2023-05-10T04:25:40;9.98;;;3.70;;
71896;SDS011;59767;51.344;12.362;2023-05-10T04:28:44;9.55;;;3.20;;
71896;SDS011;59767;51.344;12.362;2023-05-10T04:31:48;7.72;;;3.08;;
71896;SDS011;59767;51.344;12.362;2023-05-10T04:34:53;9.55;;;3.30;;
71896;SDS011;59767;51.344;12.362;2023-05-10T04:37:57;14.43;;;3.42;;
71896;SDS011;59767;51.344;12.362;2023-05-10T04:41:07;11.23;;;3.30;;
71896;SDS011;59767;51.344;12.362;2023-05-10T04:44:13;11.35;;;3.83;;
71896;SDS011;59767;51.344;12.362;2023-05-10T04:47:17;6.55;;;3.13;;
71896;SDS011;59767;51.344;12.362;2023-05-10T04:50:21;8.73;;;3.42;;
71896;SDS011;59767;51.344;12.362;2023-05-10T04:53:25;7.05;;;3.22;;
71896;SDS011;59767;51.344;12.362;2023-05-10T04:56:29;7.50;;;3.20;;
71896;SDS011;59767;51.344;12.362;2023-05-10T04:59:35;10.40;;;3.00;;
71896;SDS011;59767;51.344;12.362;2023-05-10T05:02:43;8.60;;;3.17;;
71896;SDS011;59767;51.344;12.362;2023-05-10T05:05:51;7.45;;;3.45;;
71896;SDS011;59767;51.344;12.362;2023-05-10T05:08:55;10.10;;;3.40;;
71896;SDS011;59767;51.344;12.362;2023-05-10T05:11:59;7.60;;;3.38;;
71896;SDS011;59767;51.344;12.362;2023-05-10T05:15:03;7.30;;;3.17;;
71896;SDS011;59767;51.344;12.362;2023-05-10T05:18:11;7.95;;;3.25;;
71896;SDS011;59767;51.344;12.362;2023-05-10T05:21:16;9.30;;;3.35;;
71896;SDS011;59767;51.344;12.362;2023-05-10T05:24:21;7.70;;;3.20;;
71896;SDS011;59767;51.344;12.362;2023-05-10T05:27:25;10.60;;;3.08;;
71896;SDS011;59767;51.344;12.362;2023-05-10T05:30:31;7.40;;;3.10;;
71896;SDS011;59767;51.344;12.362;2023-05-10T05:33:36;7.68;;;3.10;;
71896;SDS011;59767;51.344;12.362;2023-05-10T05:36:40;10.68;;;3.40;;
71896;SDS011;59767;51.344;12.362;2023-05-10T05:39:44;11.27;;;3.20;;
71896;SDS011;59767;51.344;12.362;2023-05-10T05:42:49;8.82;;;3.08;;
71896;SDS011;59767;51.344;12.362;2023-05-10T05:45:53;9.52;;;3.17;;
71896;SDS011;59767;51.344;12.362;2023-05-10T05:48:57;9.38;;;2.90;;
71896;SDS011;59767;51.344;12.362;2023-05-10T05:52:01;14.88;;;3.05;;
71896;SDS011;59767;51.344;12.362;2023-05-10T05:55:07;8.25;;;3.13;;
71896;SDS011;59767;51.344;12.362;2023-05-10T05:58:11;13.10;;;3.38;;
71896;SDS011;59767;51.344;12.362;2023-05-10T06:01:15;11.73;;;3.50;;
71896;SDS011;59767;51.344;12.362;2023-05-10T06:04:19;9.65;;;3.00;;
71896;SDS011;59767;51.344;12.362;2023-05-10T06:07:23;9.68;;;3.35;;
71896;SDS011;59767;51.344;12.362;2023-05-10T06:10:28;9.68;;;3.38;;
71896;SDS011;59767;51.344;12.362;2023-05-10T06:13:32;7.63;;;3.10;;
71896;SDS011;59767;51.344;12.362;2023-05-10T06:16:37;8.38;;;3.10;;
71896;SDS011;59767;51.344;12.362;2023-05-10T06:19:41;9.98;;;3.55;;
71896;SDS011;59767;51.344;12.362;2023-05-10T06:22:45;11.25;;;3.42;;
71896;SDS011;59767;51.344;12.362;2023-05-10T06:25:49;7.88;;;3.00;;
71896;SDS011;59767;51.344;12.362;2023-05-10T06:28:53;8.70;;;3.40;;
71896;SDS011;59767;51.344;12.362;2023-05-10T06:31:58;9.75;;;3.28;;
71896;SDS011;59767;51.344;12.362;2023-05-10T06:35:02;6.43;;;3.20;;
71896;SDS011;59767;51.344;12.362;2023-05-10T06:38:07;9.30;;;3.00;;
71896;SDS011;59767;51.344;12.362;2023-05-10T06:41:14;9.45;;;3.50;;
71896;SDS011;59767;51.344;12.362;2023-05-10T06:44:18;12.40;;;3.50;;
71896;SDS011;59767;51.344;12.362;2023-05-10T06:47:23;7.63;;;2.90;;
71896;SDS011;59767;51.344;12.362;2023-05-10T06:50:27;10.73;;;3.53;;
71896;SDS011;59767;51.344;12.362;2023-05-10T06:53:31;7.47;;;3.00;;
71896;SDS011;59767;51.344;12.362;2023-05-10T06:56:35;12.98;;;3.40;;
71896;SDS011;59767;51.344;12.362;2023-05-10T06:59:40;11.60;;;3.00;;
71896;SDS011;59767;51.344;12.362;2023-05-10T07:02:44;8.98;;;3.03;;
71896;SDS011;59767;51.344;12.362;2023-05-10T07:05:49;6.63;;;2.90;;
71896;SDS011;59767;51.344;12.362;2023-05-10T07:08:53;6.97;;;2.50;;
71896;SDS011;59767;51.344;12.362;2023-05-10T07:11:57;7.65;;;2.80;;
71896;SDS011;59767;51.344;12.362;2023-05-10T07:15:02;9.68;;;2.85;;
71896;SDS011;59767;51.344;12.362;2023-05-10T07:18:06;7.82;;;2.80;;
71896;SDS011;59767;51.344;12.362;2023-05-10T07:21:12;11.55;;;2.70;;
71896;SDS011;59767;51.344;12.362;2023-05-10T07:24:16;11.88;;;3.08;;
71896;SDS011;59767;51.344;12.362;2023-05-10T07:27:20;13.57;;;3.20;;
71896;SDS011;59767;51.344;12.362;2023-05-10T07:30:24;9.63;;;2.75;;
71896;SDS011;59767;51.344;12.362;2023-05-10T07:33:28;9.95;;;3.20;;
71896;SDS011;59767;51.344;12.362;2023-05-10T07:36:32;8.30;;;2.50;;
71896;SDS011;59767;51.344;12.362;2023-05-10T07:39:36;12.82;;;2.50;;
71896;SDS011;59767;51.344;12.362;2023-05-10T07:42:41;13.60;;;2.90;;
71896;SDS011;59767;51.344;12.362;2023-05-10T07:45:45;14.38;;;2.55;;
71896;SDS011;59767;51.344;12.362;2023-05-10T07:48:49;8.75;;;3.05;;
71896;SDS011;59767;51.344;12.362;2023-05-10T07:51:53;9.20;;;2.85;;
71896;SDS011;59767;51.344;12.362;2023-05-10T07:54:57;7.82;;;2.80;;
71896;SDS011;59767;51.344;12.362;2023-05-10T07:58:01;10.70;;;2.92;;
71896;SDS011;59767;51.344;12.362;2023-05-10T08:01:06;12.73;;;3.33;;
71896;SDS011;59767;51.344;12.362;2023-05-10T08:04:10;9.65;;;2.90;;
71896;SDS011;59767;51.344;12.362;2023-05-10T08:07:15;8.27;;;3.08;;
71896;SDS011;59767;51.344;12.362;2023-05-10T08:10:19;7.53;;;2.90;;
71896;SDS011;59767;51.344;12.362;2023-05-10T08:13:23;7.32;;;2.95;;
71896;SDS011;59767;51.344;12.362;2023-05-10T08:16:27;7.22;;;2.70;;
71896;SDS011;59767;51.344;12.362;2023-05-10T08:19:33;7.13;;;3.00;;
71896;SDS011;59767;51.344;12.362;2023-05-10T08:22:37;6.30;;;2.83;;
71896;SDS011;59767;51.344;12.362;2023-05-10T08:25:41;13.18;;;3.10;;
71896;SDS011;59767;51.344;12.362;2023-05-10T08:28:45;10.27;;;2.90;;
71896;SDS011;59767;51.344;12.362;2023-05-10T08:31:50;8.57;;;3.00;;
71896;SDS011;59767;51.344;12.362;2023-05-10T08:34:55;6.65;;;3.13;;
71896;SDS011;59767;51.344;12.362;2023-05-10T08:37:59;8.30;;;3.10;;
71896;SDS011;59767;51.344;12.362;2023-05-10T08:41:04;9.35;;;2.83;;
71896;SDS011;59767;51.344;12.362;2023-05-10T08:44:09;11.35;;;3.40;;
71896;SDS011;59767;51.344;12.362;2023-05-10T08:47:16;8.55;;;3.10;;
71896;SDS011;59767;51.344;12.362;2023-05-10T08:50:22;8.88;;;3.30;;
71896;SDS011;59767;51.344;12.362;2023-05-10T08:53:28;8.88;;;3.25;;
71896;SDS011;59767;51.344;12.362;2023-05-10T08:56:34;8.77;;;3.03;;
71896;SDS011;59767;51.344;12.362;2023-05-10T08:59:39;11.60;;;3.67;;
71896;SDS011;59767;51.344;12.362;2023-05-10T09:02:44;9.30;;;3.40;;
71896;SDS011;59767;51.344;12.362;2023-05-10T09:05:50;9.65;;;3.58;;
71896;SDS011;59767;51.344;12.362;2023-05-10T09:08:54;9.57;;;3.50;;
71896;SDS011;59767;51.344;12.362;2023-05-10T09:11:58;7.05;;;3.30;;
71896;SDS011;59767;51.344;12.362;2023-05-10T09:15:03;10.10;;;3.72;;
71896;SDS011;59767;51.344;12.362;2023-05-10T09:18:09;10.05;;;3.97;;
71896;SDS011;59767;51.344;12.362;2023-05-10T09:21:13;10.70;;;3.88;;
71896;SDS011;59767;51.344;12.362;2023-05-10T09:24:17;12.57;;;4.20;;
71896;SDS011;59767;51.344;12.362;2023-05-10T09:27:28;10.73;;;4.32;;
71896;SDS011;59767;51.344;12.362;2023-05-10T09:30:31;8.85;;;4.10;;
71896;SDS011;59767;51.344;12.362;2023-05-10T09:33:43;11.05;;;4.45;;
71896;SDS011;59767;51.344;12.362;2023-05-10T09:36:51;10.23;;;4.13;;
71896;SDS011;59767;51.344;12.362;2023-05-10T09:40:08;14.18;;;5.22;;
71896;SDS011;59767;51.344;12.362;2023-05-10T09:43:15;10.60;;;4.72;;
71896;SDS011;59767;51.344;12.362;2023-05-10T09:46:19;8.82;;;4.70;;
71896;SDS011;59767;51.344;12.362;2023-05-10T09:49:24;8.40;;;4.65;;
71896;SDS011;59767;51.344;12.362;2023-05-10T09:52:28;9.50;;;4.80;;
71896;SDS011;59767;51.344;12.362;2023-05-10T09:58:39;12.45;;;5.00;;
71896;SDS011;59767;51.344;12.362;2023-05-10T10:01:49;8.75;;;4.47;;
71896;SDS011;59767;51.344;12.362;2023-05-10T10:04:54;9.63;;;5.25;;
71896;SDS011;59767;51.344;12.362;2023-05-10T10:07:59;9.43;;;4.82;;
71896;SDS011;59767;51.344;12.362;2023-05-10T10:11:04;9.88;;;4.97;;
71896;SDS011;59767;51.344;12.362;2023-05-10T10:14:08;14.25;;;6.15;;
71896;SDS011;59767;51.344;12.362;2023-05-10T10:17:13;11.32;;;5.07;;
71896;SDS011;59767;51.344;12.362;2023-05-10T10:20:17;8.15;;;4.50;;
71896;SDS011;59767;51.344;12.362;2023-05-10T10:23:23;10.35;;;4.90;;
71896;SDS011;59767;51.344;12.362;2023-05-10T10:26:27;12.88;;;4.72;;
71896;SDS011;59767;51.344;12.362;2023-05-10T10:29:44;11.40;;;5.13;;
71896;SDS011;59767;51.344;12.362;2023-05-10T10:36:33;10.52;;;5.00;;
71896;SDS011;59767;51.344;12.362;2023-05-10T10:39:43;10.00;;;5.60;;
71896;SDS011;59767;51.344;12.362;2023-05-10T10:42:47;11.65;;;5.47;;
71896;SDS011;59767;51.344;12.362;2023-05-10T10:49:18;9.00;;;5.00;;
71896;SDS011;59767;51.344;12.362;2023-05-10T10:52:23;11.23;;;5.45;;
71896;SDS011;59767;51.344;12.362;2023-05-10T10:55:44;8.68;;;5.22;;
71896;SDS011;59767;51.344;12.362;2023-05-10T10:58:51;10.82;;;6.25;;
71896;SDS011;59767;51.344;12.362;2023-05-10T11:01:57;10.07;;;5.80;;
71896;SDS011;59767;51.344;12.362;2023-05-10T11:08:33;11.93;;;6.32;;
71896;SDS011;59767;51.344;12.362;2023-05-10T11:11:49;11.38;;;5.75;;
71896;SDS011;59767;51.344;12.362;2023-05-10T11:14:56;12.82;;;5.80;;
71896;SDS011;59767;51.344;12.362;2023-05-10T11:21:26;12.77;;;6.30;;
71896;SDS011;59767;51.344;12.362;2023-05-10T11:24:31;10.60;;;5.80;;
71896;SDS011;59767;51.344;12.362;2023-05-10T11:27:36;10.75;;;5.68;;
71896;SDS011;59767;51.344;12.362;2023-05-10T11:30:43;12.93;;;6.43;;
71896;SDS011;59767;51.344;12.362;2023-05-10T11:33:50;12.88;;;6.20;;
71896;SDS011;59767;51.344;12.362;2023-05-10T11:36:55;11.15;;;6.53;;
71896;SDS011;59767;51.344;12.362;2023-05-10T11:40:00;10.60;;;6.30;;
71896;SDS011;59767;51.344;12.362;2023-05-10T11:43:04;9.77;;;6.20;;
71896;SDS011;59767;51.344;12.362;2023-05-10T11:46:10;9.57;;;6.25;;
71896;SDS011;59767;51.344;12.362;2023-05-10T11:49:14;11.48;;;6.05;;
71896;SDS011;59767;51.344;12.362;2023-05-10T11:52:19;12.75;;;6.40;;
71896;SDS011;59767;51.344;12.362;2023-05-10T11:55:24;11.30;;;6.82;;
71896;SDS011;59767;51.344;12.362;2023-05-10T11:58:28;12.13;;;6.60;;
71896;SDS011;59767;51.344;12.362;2023-05-10T12:01:32;12.57;;;6.78;;
71896;SDS011;59767;51.344;12.362;2023-05-10T12:04:37;12.95;;;6.70;;
71896;SDS011;59767;51.344;12.362;2023-05-10T12:07:42;12.68;;;7.68;;
71896;SDS011;59767;51.344;12.362;2023-05-10T12:10:46;14.23;;;7.07;;
71896;SDS011;59767;51.344;12.362;2023-05-10T12:13:50;14.25;;;7.22;;
71896;SDS011;59767;51.344;12.362;2023-05-10T12:16:56;11.77;;;7.05;;
71896;SDS011;59767;51.344;12.362;2023-05-10T12:20:14;13.45;;;6.82;;
71896;SDS011;59767;51.344;12.362;2023-05-10T12:23:22;8.98;;;6.25;;
71896;SDS011;59767;51.344;12.362;2023-05-10T12:26:27;10.77;;;6.35;;
71896;SDS011;59767;51.344;12.362;2023-05-10T12:29:31;10.75;;;7.03;;
71896;SDS011;59767;51.344;12.362;2023-05-10T12:32:39;11.18;;;6.70;;
71896;SDS011;59767;51.344;12.362;2023-05-10T12:35:49;10.05;;;6.95;;
71896;SDS011;59767;51.344;12.362;2023-05-10T12:39:02;12.00;;;7.72;;
71896;SDS011;59767;51.344;12.362;2023-05-10T12:42:06;9.95;;;6.18;;
71896;SDS011;59767;51.344;12.362;2023-05-10T12:45:11;15.73;;;6.82;;
71896;SDS011;59767;51.344;12.362;2023-05-10T12:48:15;9.35;;;5.93;;
71896;SDS011;59767;51.344;12.362;2023-05-10T12:51:19;11.57;;;6.65;;
71896;SDS011;59767;51.344;12.362;2023-05-10T12:54:25;10.45;;;6.75;;
71896;SDS011;59767;51.344;12.362;2023-05-10T12:57:30;12.38;;;6.60;;
71896;SDS011;59767;51.344;12.362;2023-05-10T13:00:34;11.20;;;6.45;;
71896;SDS011;59767;51.344;12.362;2023-05-10T13:03:39;10.43;;;5.72;;
71896;SDS011;59767;51.344;12.362;2023-05-10T13:06:43;12.90;;;6.47;;
71896;SDS011;59767;51.344;12.362;2023-05-10T13:09:47;9.50;;;5.85;;
71896;SDS011;59767;51.344;12.362;2023-05-10T13:12:51;10.48;;;5.47;;
71896;SDS011;59767;51.344;12.362;2023-05-10T13:15:56;9.13;;;5.53;;
71896;SDS011;59767;51.344;12.362;2023-05-10T13:19:00;8.77;;;4.97;;
71896;SDS011;59767;51.344;12.362;2023-05-10T13:22:04;7.70;;;4.90;;
71896;SDS011;59767;51.344;12.362;2023-05-10T13:25:08;9.07;;;5.10;;
71896;SDS011;59767;51.344;12.362;2023-05-10T13:28:12;7.80;;;4.53;;
71896;SDS011;59767;51.344;12.362;2023-05-10T13:31:16;10.60;;;4.78;;
71896;SDS011;59767;51.344;12.362;2023-05-10T13:34:21;7.70;;;4.40;;
71896;SDS011;59767;51.344;12.362;2023-05-10T13:37:25;10.40;;;4.65;;
71896;SDS011;59767;51.344;12.362;2023-05-10T13:40:29;9.98;;;4.80;;
71896;SDS011;59767;51.344;12.362;2023-05-10T13:43:33;9.68;;;4.80;;
71896;SDS011;59767;51.344;12.362;2023-05-10T13:46:38;10.38;;;4.72;;
71896;SDS011;59767;51.344;12.362;2023-05-10T13:49:43;9.15;;;4.38;;
71896;SDS011;59767;51.344;12.362;2023-05-10T13:52:46;10.18;;;4.72;;
71896;SDS011;59767;51.344;12.362;2023-05-10T13:55:51;10.00;;;4.88;;
71896;SDS011;59767;51.344;12.362;2023-05-10T13:58:55;8.05;;;4.60;;
71896;SDS011;59767;51.344;12.362;2023-05-10T14:02:00;7.68;;;4.63;;
71896;SDS011;59767;51.344;12.362;2023-05-10T14:05:08;9.68;;;4.38;;
71896;SDS011;59767;51.344;12.362;2023-05-10T14:08:12;9.80;;;5.05;;
71896;SDS011;59767;51.344;12.362;2023-05-10T14:11:16;8.05;;;4.40;;
71896;SDS011;59767;51.344;12.362;2023-05-10T14:14:21;10.18;;;4.60;;
71896;SDS011;59767;51.344;12.362;2023-05-10T14:17:25;8.85;;;4.55;;
71896;SDS011;59767;51.344;12.362;2023-05-10T14:20:29;8.57;;;4.80;;
71896;SDS011;59767;51.344;12.362;2023-05-10T14:23:33;6.72;;;3.60;;
71896;SDS011;59767;51.344;12.362;2023-05-10T14:26:37;7.82;;;3.00;;
71896;SDS011;59767;51.344;12.362;2023-05-10T14:29:41;6.10;;;2.38;;
71896;SDS011;59767;51.344;12.362;2023-05-10T14:32:46;6.03;;;2.50;;
71896;SDS011;59767;51.344;12.362;2023-05-10T14:35:50;8.65;;;4.45;;
71896;SDS011;59767;51.344;12.362;2023-05-10T14:38:54;4.35;;;2.15;;
71896;SDS011;59767;51.344;12.362;2023-05-10T14:41:58;8.95;;;2.50;;
71896;SDS011;59767;51.344;12.362;2023-05-10T14:45:03;4.78;;;2.50;;
71896;SDS011;59767;51.344;12.362;2023-05-10T14:48:07;7.22;;;3.00;;
71896;SDS011;59767;51.344;12.362;2023-05-10T14:51:14;6.47;;;3.00;;
71896;SDS011;59767;51.344;12.362;2023-05-10T14:54:19;8.82;;;3.25;;
71896;SDS011;59767;51.344;12.362;2023-05-10T14:57:23;6.72;;;3.30;;
71896;SDS011;59767;51.344;12.362;2023-05-10T15:00:27;10.80;;;4.18;;
71896;SDS011;59767;51.344;12.362;2023-05-10T15:03:33;8.90;;;4.57;;
71896;SDS011;59767;51.344;12.362;2023-05-10T15:06:37;10.85;;;3.65;;
71896;SDS011;59767;51.344;12.362;2023-05-10T15:09:42;8.63;;;3.33;;
71896;SDS011;59767;51.344;12.362;2023-05-10T15:12:46;6.75;;;2.00;;
71896;SDS011;59767;51.344;12.362;2023-05-10T15:15:50;4.53;;;1.58;;
71896;SDS011;59767;51.344;12.362;2023-05-10T15:18:55;4.47;;;1.45;;
71896;SDS011;59767;51.344;12.362;2023-05-10T15:21:59;3.03;;;1.40;;
71896;SDS011;59767;51.344;12.362;2023-05-10T15:25:03;3.42;;;1.40;;
71896;SDS011;59767;51.344;12.362;2023-05-10T15:28:08;3.38;;;1.30;;
71896;SDS011;59767;51.344;12.362;2023-05-10T15:31:12;4.88;;;1.20;;
71896;SDS011;59767;51.344;12.362;2023-05-10T15:34:17;4.28;;;1.30;;
71896;SDS011;59767;51.344;12.362;2023-05-10T15:37:21;6.30;;;1.70;;
71896;SDS011;59767;51.344;12.362;2023-05-10T15:40:27;2.10;;;1.05;;
71896;SDS011;59767;51.344;12.362;2023-05-10T15:43:31;4.05;;;1.20;;
71896;SDS011;59767;51.344;12.362;2023-05-10T15:46:35;3.80;;;1.10;;
71896;SDS011;59767;51.344;12.362;2023-05-10T15:49:41;4.55;;;1.20;;
71896;SDS011;59767;51.344;12.362;2023-05-10T15:52:45;2.70;;;1.10;;
71896;SDS011;59767;51.344;12.362;2023-05-10T15:55:49;1.73;;;0.90;;
71896;SDS011;59767;51.344;12.362;2023-05-10T15:58:54;5.90;;;1.10;;
71896;SDS011;59767;51.344;12.362;2023-05-10T16:01:58;3.13;;;1.05;;
71896;SDS011;59767;51.344;12.362;2023-05-10T16:05:03;1.73;;;0.75;;
71896;SDS011;59767;51.344;12.362;2023-05-10T16:08:07;3.78;;;1.10;;
71896;SDS011;59767;51.344;12.362;2023-05-10T16:11:11;3.47;;;1.00;;
71896;SDS011;59767;51.344;12.362;2023-05-10T16:14:16;3.10;;;1.25;;
71896;SDS011;59767;51.344;12.362;2023-05-10T16:17:20;4.43;;;1.00;;
71896;SDS011;59767;51.344;12.362;2023-05-10T16:20:24;2.97;;;1.10;;
71896;SDS011;59767;51.344;12.362;2023-05-10T16:23:28;3.70;;;0.90;;
71896;SDS011;59767;51.344;12.362;2023-05-10T16:26:32;2.92;;;1.10;;
71896;SDS011;59767;51.344;12.362;2023-05-10T16:29:43;3.58;;;1.23;;
71896;SDS011;59767;51.344;12.362;2023-05-10T16:32:47;1.80;;;0.90;;
71896;SDS011;59767;51.344;12.362;2023-05-10T16:35:52;4.53;;;0.90;;
71896;SDS011;59767;51.344;12.362;2023-05-10T16:38:56;2.03;;;0.90;;
71896;SDS011;59767;51.344;12.362;2023-05-10T16:42:00;6.13;;;2.15;;
71896;SDS011;59767;51.344;12.362;2023-05-10T16:45:05;2.28;;;1.00;;
71896;SDS011;59767;51.344;12.362;2023-05-10T16:48:12;4.07;;;1.13;;
71896;SDS011;59767;51.344;12.362;2023-05-10T16:51:17;2.90;;;0.93;;
71896;SDS011;59767;51.344;12.362;2023-05-10T16:54:21;4.15;;;0.98;;
71896;SDS011;59767;51.344;12.362;2023-05-10T16:57:25;3.03;;;1.13;;
71896;SDS011;59767;51.344;12.362;2023-05-10T17:00:30;3.70;;;1.52;;
71896;SDS011;59767;51.344;12.362;2023-05-10T17:03:34;2.78;;;1.30;;
71896;SDS011;59767;51.344;12.362;2023-05-10T17:06:39;4.18;;;1.20;;
71896;SDS011;59767;51.344;12.362;2023-05-10T17:09:45;3.42;;;1.30;;
71896;SDS011;59767;51.344;12.362;2023-05-10T17:12:49;3.35;;;1.40;;
71896;SDS011;59767;51.344;12.362;2023-05-10T17:15:53;5.55;;;1.50;;
71896;SDS011;59767;51.344;12.362;2023-05-10T17:18:59;3.45;;;1.40;;
71896;SDS011;59767;51.344;12.362;2023-05-10T17:22:03;4.28;;;1.58;;
71896;SDS011;59767;51.344;12.362;2023-05-10T17:25:07;3.53;;;1.63;;
71896;SDS011;59767;51.344;12.362;2023-05-10T17:28:12;3.22;;;1.67;;
71896;SDS011;59767;51.344;12.362;2023-05-10T17:31:16;3.92;;;1.77;;
71896;SDS011;59767;51.344;12.362;2023-05-10T17:34:21;7.80;;;3.47;;
71896;SDS011;59767;51.344;12.362;2023-05-10T17:37:25;6.07;;;1.90;;
71896;SDS011;59767;51.344;12.362;2023-05-10T17:40:29;5.65;;;2.20;;
71896;SDS011;59767;51.344;12.362;2023-05-10T17:43:34;4.43;;;2.20;;
71896;SDS011;59767;51.344;12.362;2023-05-10T17:46:38;7.28;;;2.20;;
71896;SDS011;59767;51.344;12.362;2023-05-10T17:49:42;6.55;;;2.15;;
71896;SDS011;59767;51.344;12.362;2023-05-10T17:52:46;5.25;;;2.17;;
71896;SDS011;59767;51.344;12.362;2023-05-10T17:55:51;5.07;;;2.25;;
71896;SDS011;59767;51.344;12.362;2023-05-10T17:58:56;6.82;;;2.63;;
71896;SDS011;59767;51.344;12.362;2023-05-10T18:02:01;7.93;;;3.80;;
71896;SDS011;59767;51.344;12.362;2023-05-10T18:05:05;10.02;;;5.90;;
71896;SDS011;59767;51.344;12.362;2023-05-10T18:08:10;12.40;;;6.70;;
71896;SDS011;59767;51.344;12.362;2023-05-10T18:11:13;25.52;;;16.25;;
71896;SDS011;59767;51.344;12.362;2023-05-10T18:14:18;49.42;;;29.77;;
71896;SDS011;59767;51.344;12.362;2023-05-10T18:17:39;16.98;;;9.48;;
71896;SDS011;59767;51.344;12.362;2023-05-10T18:20:43;7.45;;;3.60;;
71896;SDS011;59767;51.344;12.362;2023-05-10T18:23:49;8.45;;;3.40;;
71896;SDS011;59767;51.344;12.362;2023-05-10T18:26:53;7.60;;;3.83;;
71896;SDS011;59767;51.344;12.362;2023-05-10T18:29:57;5.13;;;3.20;;
71896;SDS011;59767;51.344;12.362;2023-05-10T18:33:01;7.28;;;3.30;;
71896;SDS011;59767;51.344;12.362;2023-05-10T18:36:06;6.88;;;3.40;;
71896;SDS011;59767;51.344;12.362;2023-05-10T18:39:10;13.13;;;3.70;;
71896;SDS011;59767;51.344;12.362;2023-05-10T18:42:16;6.28;;;3.10;;
71896;SDS011;59767;51.344;12.362;2023-05-10T18:45:21;4.85;;;2.55;;